Aviation Digital Data Service (ADDS)

Output produced by METARs form (1936 UTC 23 January 2019)
found at http://www.aviationweather.gov/metar/data/
 
METAR text: ENRY 231920Z 08004KT 9999 BKN032 M04/M05 Q1009
Conditions at: ENRY (RYGGE (NOR-AFB) , NO) observed 1920 UTC 23 January 2019
Temperature: -4.0°C (25°F)
Dewpoint: -5.0°C (23°F) [RH = 93%]
Pressure (altimeter): 29.79 inches Hg (1009.0 mb)
Winds: from the E (80 degrees) at 5 MPH (4 knots; 2.1 m/s)
Visibility: 6 or more miles (10+ km)
Ceiling: 3200 feet AGL
Clouds: broken clouds at 3200 feet AGL
Weather: no significant weather observed at this time

METAR text: ENRY 231850Z 08005KT 9999 BKN029 M04/M06 Q1009
Conditions at: ENRY (RYGGE (NOR-AFB) , NO) observed 1850 UTC 23 January 2019
Temperature: -4.0°C (25°F)
Dewpoint: -6.0°C (21°F) [RH = 86%]
Pressure (altimeter): 29.79 inches Hg (1009.0 mb)
Winds: from the E (80 degrees) at 6 MPH (5 knots; 2.6 m/s)
Visibility: 6 or more miles (10+ km)
Ceiling: 2900 feet AGL
Clouds: broken clouds at 2900 feet AGL
Weather: no significant weather observed at this time

METAR text: ENRY 231820Z 08004KT 9999 BKN030 M04/M06 Q1009
Conditions at: ENRY (RYGGE (NOR-AFB) , NO) observed 1820 UTC 23 January 2019
Temperature: -4.0°C (25°F)
Dewpoint: -6.0°C (21°F) [RH = 86%]
Pressure (altimeter): 29.79 inches Hg (1009.0 mb)
Winds: from the E (80 degrees) at 5 MPH (4 knots; 2.1 m/s)
Visibility: 6 or more miles (10+ km)
Ceiling: 3000 feet AGL
Clouds: broken clouds at 3000 feet AGL
Weather: no significant weather observed at this time

METAR text: ENRY 231750Z 09005KT 9999 FEW022 M04/M06 Q1009
Conditions at: ENRY (RYGGE (NOR-AFB) , NO) observed 1750 UTC 23 January 2019
Temperature: -4.0°C (25°F)
Dewpoint: -6.0°C (21°F) [RH = 86%]
Pressure (altimeter): 29.79 inches Hg (1009.0 mb)
Winds: from the E (90 degrees) at 6 MPH (5 knots; 2.6 m/s)
Visibility: 6 or more miles (10+ km)
Ceiling: at least 12,000 feet AGL
Clouds: few clouds at 2200 feet AGL
Weather: no significant weather observed at this time

METAR text: ENRY 231720Z 11007KT 9999 FEW016 M04/M06 Q1009
Conditions at: ENRY (RYGGE (NOR-AFB) , NO) observed 1720 UTC 23 January 2019
Temperature: -4.0°C (25°F)
Dewpoint: -6.0°C (21°F) [RH = 86%]
Pressure (altimeter): 29.79 inches Hg (1009.0 mb)
Winds: from the ESE (110 degrees) at 8 MPH (7 knots; 3.6 m/s)
Visibility: 6 or more miles (10+ km)
Ceiling: at least 12,000 feet AGL
Clouds: few clouds at 1600 feet AGL
Weather: no significant weather observed at this time

METAR text: ENRY 231650Z 10006KT 9999 FEW013 BKN040 M03/M05 Q1009
Conditions at: ENRY (RYGGE (NOR-AFB) , NO) observed 1650 UTC 23 January 2019
Temperature: -3.0°C (27°F)
Dewpoint: -5.0°C (23°F) [RH = 86%]
Pressure (altimeter): 29.79 inches Hg (1009.0 mb)
Winds: from the E (100 degrees) at 7 MPH (6 knots; 3.1 m/s)
Visibility: 6 or more miles (10+ km)
Ceiling: 4000 feet AGL
Clouds: few clouds at 1300 feet AGL
broken clouds at 4000 feet AGL
Weather: no significant weather observed at this time

METAR text: ENRY 231620Z 13004KT 9999 SCT014 BKN040 M02/M05 Q1009
Conditions at: ENRY (RYGGE (NOR-AFB) , NO) observed 1620 UTC 23 January 2019
Temperature: -2.0°C (28°F)
Dewpoint: -5.0°C (23°F) [RH = 80%]
Pressure (altimeter): 29.79 inches Hg (1009.0 mb)
Winds: from the SE (130 degrees) at 5 MPH (4 knots; 2.1 m/s)
Visibility: 6 or more miles (10+ km)
Ceiling: 4000 feet AGL
Clouds: scattered clouds at 1400 feet AGL
broken clouds at 4000 feet AGL
Weather: no significant weather observed at this time

METAR text: ENRY 231550Z 13004KT 9999 FEW015 BKN041 M02/M05 Q1008
Conditions at: ENRY (RYGGE (NOR-AFB) , NO) observed 1550 UTC 23 January 2019
Temperature: -2.0°C (28°F)
Dewpoint: -5.0°C (23°F) [RH = 80%]
Pressure (altimeter): 29.76 inches Hg (1008.0 mb)
Winds: from the SE (130 degrees) at 5 MPH (4 knots; 2.1 m/s)
Visibility: 6 or more miles (10+ km)
Ceiling: 4100 feet AGL
Clouds: few clouds at 1500 feet AGL
broken clouds at 4100 feet AGL
Weather: no significant weather observed at this time

METAR text: ENRY 231520Z 14006KT 9999 FEW015 SCT041 M03/M05 Q1008
Conditions at: ENRY (RYGGE (NOR-AFB) , NO) observed 1520 UTC 23 January 2019
Temperature: -3.0°C (27°F)
Dewpoint: -5.0°C (23°F) [RH = 86%]
Pressure (altimeter): 29.76 inches Hg (1008.0 mb)
Winds: from the SE (140 degrees) at 7 MPH (6 knots; 3.1 m/s)
Visibility: 6 or more miles (10+ km)
Ceiling: at least 12,000 feet AGL
Clouds: few clouds at 1500 feet AGL
scattered clouds at 4100 feet AGL
Weather: no significant weather observed at this time

METAR text: ENRY 231450Z 13007KT 9999 SCT017 M03/M06 Q1008
Conditions at: ENRY (RYGGE (NOR-AFB) , NO) observed 1450 UTC 23 January 2019
Temperature: -3.0°C (27°F)
Dewpoint: -6.0°C (21°F) [RH = 80%]
Pressure (altimeter): 29.76 inches Hg (1008.0 mb)
Winds: from the SE (130 degrees) at 8 MPH (7 knots; 3.6 m/s)
Visibility: 6 or more miles (10+ km)
Ceiling: at least 12,000 feet AGL
Clouds: scattered clouds at 1700 feet AGL
Weather: no significant weather observed at this time

METAR text: ENRY 231420Z 13007KT 9999 SCT018 M03/M05 Q1008 NOSIG
Conditions at: ENRY (RYGGE (NOR-AFB) , NO) observed 1420 UTC 23 January 2019
Temperature: -3.0°C (27°F)
Dewpoint: -5.0°C (23°F) [RH = 86%]
Pressure (altimeter): 29.76 inches Hg (1008.0 mb)
Winds: from the SE (130 degrees) at 8 MPH (7 knots; 3.6 m/s)
Visibility: 6 or more miles (10+ km)
Ceiling: at least 12,000 feet AGL
Clouds: scattered clouds at 1800 feet AGL
Weather: no significant weather observed at this time

METAR text: ENRY 231350Z 12006KT 9999 SCT017 M02/M05 Q1007 TEMPO BKN014
Conditions at: ENRY (RYGGE (NOR-AFB) , NO) observed 1350 UTC 23 January 2019
Temperature: -2.0°C (28°F)
Dewpoint: -5.0°C (23°F) [RH = 80%]
Pressure (altimeter): 29.73 inches Hg (1007.0 mb)
Winds: from the ESE (120 degrees) at 7 MPH (6 knots; 3.1 m/s)
Visibility: 6 or more miles (10+ km)
Ceiling: at least 12,000 feet AGL
Clouds: scattered clouds at 1700 feet AGL
Weather: no significant weather observed at this time

METAR text: ENRY 231320Z 11005KT 9999 SCT016 M02/M05 Q1007 TEMPO BKN012
Conditions at: ENRY (RYGGE (NOR-AFB) , NO) observed 1320 UTC 23 January 2019
Temperature: -2.0°C (28°F)
Dewpoint: -5.0°C (23°F) [RH = 80%]
Pressure (altimeter): 29.73 inches Hg (1007.0 mb)
Winds: from the ESE (110 degrees) at 6 MPH (5 knots; 2.6 m/s)
Visibility: 6 or more miles (10+ km)
Ceiling: at least 12,000 feet AGL
Clouds: scattered clouds at 1600 feet AGL
Weather: no significant weather observed at this time

METAR text: ENRY 231250Z 11004KT 9999 FEW014 M02/M05 Q1007 NOSIG
Conditions at: ENRY (RYGGE (NOR-AFB) , NO) observed 1250 UTC 23 January 2019
Temperature: -2.0°C (28°F)
Dewpoint: -5.0°C (23°F) [RH = 80%]
Pressure (altimeter): 29.73 inches Hg (1007.0 mb)
Winds: from the ESE (110 degrees) at 5 MPH (4 knots; 2.1 m/s)
Visibility: 6 or more miles (10+ km)
Ceiling: at least 12,000 feet AGL
Clouds: few clouds at 1400 feet AGL
Weather: no significant weather observed at this time

METAR text: ENRY 231220Z 12005KT 9999 FEW025 M01/M04 Q1007 NOSIG
Conditions at: ENRY (RYGGE (NOR-AFB) , NO) observed 1220 UTC 23 January 2019
Temperature: -1.0°C (30°F)
Dewpoint: -4.0°C (25°F) [RH = 80%]
Pressure (altimeter): 29.73 inches Hg (1007.0 mb)
Winds: from the ESE (120 degrees) at 6 MPH (5 knots; 2.6 m/s)
Visibility: 6 or more miles (10+ km)
Ceiling: at least 12,000 feet AGL
Clouds: few clouds at 2500 feet AGL
Weather: no significant weather observed at this time

METAR text: ENRY 231150Z 12006KT 9999 FEW048 M01/M04 Q1007 NOSIG
Conditions at: ENRY (RYGGE (NOR-AFB) , NO) observed 1150 UTC 23 January 2019
Temperature: -1.0°C (30°F)
Dewpoint: -4.0°C (25°F) [RH = 80%]
Pressure (altimeter): 29.73 inches Hg (1007.0 mb)
Winds: from the ESE (120 degrees) at 7 MPH (6 knots; 3.1 m/s)
Visibility: 6 or more miles (10+ km)
Ceiling: at least 12,000 feet AGL
Clouds: few clouds at 4800 feet AGL
Weather: no significant weather observed at this time

METAR text: ENRY 231120Z 13006KT 9999 SCT013 M01/M04 Q1007 NOSIG
Conditions at: ENRY (RYGGE (NOR-AFB) , NO) observed 1120 UTC 23 January 2019
Temperature: -1.0°C (30°F)
Dewpoint: -4.0°C (25°F) [RH = 80%]
Pressure (altimeter): 29.73 inches Hg (1007.0 mb)
Winds: from the SE (130 degrees) at 7 MPH (6 knots; 3.1 m/s)
Visibility: 6 or more miles (10+ km)
Ceiling: at least 12,000 feet AGL
Clouds: scattered clouds at 1300 feet AGL
Weather: no significant weather observed at this time

METAR text: ENRY 231050Z 09003KT 070V140 9999 FEW014 BKN048 M01/M04 Q1007 NOSIG
Conditions at: ENRY (RYGGE (NOR-AFB) , NO) observed 1050 UTC 23 January 2019
Temperature: -1.0°C (30°F)
Dewpoint: -4.0°C (25°F) [RH = 80%]
Pressure (altimeter): 29.73 inches Hg (1007.0 mb)
Winds: from the E (90 degrees) at 3 MPH (3 knots; 1.5 m/s)
Visibility: 6 or more miles (10+ km)
Ceiling: 4800 feet AGL
Clouds: few clouds at 1400 feet AGL
broken clouds at 4800 feet AGL
Weather: no significant weather observed at this time

METAR text: ENRY 230950Z 05002KT 9999 BKN045 M02/M04 Q1007 NOSIG
Conditions at: ENRY (RYGGE (NOR-AFB) , NO) observed 0950 UTC 23 January 2019
Temperature: -2.0°C (28°F)
Dewpoint: -4.0°C (25°F) [RH = 86%]
Pressure (altimeter): 29.73 inches Hg (1007.0 mb)
Winds: from the NE (50 degrees) at 2 MPH (2 knots; 1.0 m/s)
Visibility: 6 or more miles (10+ km)
Ceiling: 4500 feet AGL
Clouds: broken clouds at 4500 feet AGL
Weather: no significant weather observed at this time

METAR text: ENRY 230920Z 06002KT 9999 FEW037 BKN044 M02/M04 Q1007 NOSIG
Conditions at: ENRY (RYGGE (NOR-AFB) , NO) observed 0920 UTC 23 January 2019
Temperature: -2.0°C (28°F)
Dewpoint: -4.0°C (25°F) [RH = 86%]
Pressure (altimeter): 29.73 inches Hg (1007.0 mb)
Winds: from the ENE (60 degrees) at 2 MPH (2 knots; 1.0 m/s)
Visibility: 6 or more miles (10+ km)
Ceiling: 4400 feet AGL
Clouds: few clouds at 3700 feet AGL
broken clouds at 4400 feet AGL
Weather: no significant weather observed at this time

METAR text: ENRY 230850Z VRB01KT 9999 SCT036 BKN045 M02/M04 Q1007 NOSIG
Conditions at: ENRY (RYGGE (NOR-AFB) , NO) observed 0850 UTC 23 January 2019
Temperature: -2.0°C (28°F)
Dewpoint: -4.0°C (25°F) [RH = 86%]
Pressure (altimeter): 29.73 inches Hg (1007.0 mb)
Winds: variable direction winds at 1 MPH (1 knots; 0.5 m/s)
Visibility: 6 or more miles (10+ km)
Ceiling: 4500 feet AGL
Clouds: scattered clouds at 3600 feet AGL
broken clouds at 4500 feet AGL
Weather: no significant weather observed at this time

METAR text: ENRY 230820Z 00000KT 9999 BKN043 M02/M04 Q1006 NOSIG
Conditions at: ENRY (RYGGE (NOR-AFB) , NO) observed 0820 UTC 23 January 2019
Temperature: -2.0°C (28°F)
Dewpoint: -4.0°C (25°F) [RH = 86%]
Pressure (altimeter): 29.70 inches Hg (1006.0 mb)
Winds: calm
Visibility: 6 or more miles (10+ km)
Ceiling: 4300 feet AGL
Clouds: broken clouds at 4300 feet AGL
Weather: no significant weather observed at this time

METAR text: ENRY 230750Z 05001KT 9999 BKN041 M02/M04 Q1006 NOSIG
Conditions at: ENRY (RYGGE (NOR-AFB) , NO) observed 0750 UTC 23 January 2019
Temperature: -2.0°C (28°F)
Dewpoint: -4.0°C (25°F) [RH = 86%]
Pressure (altimeter): 29.70 inches Hg (1006.0 mb)
Winds: from the NE (50 degrees) at 1 MPH (1 knots; 0.5 m/s)
Visibility: 6 or more miles (10+ km)
Ceiling: 4100 feet AGL
Clouds: broken clouds at 4100 feet AGL
Weather: no significant weather observed at this time

METAR text: ENRY 230720Z 08003KT 9999 BKN037 M02/M04 Q1006 NOSIG
Conditions at: ENRY (RYGGE (NOR-AFB) , NO) observed 0720 UTC 23 January 2019
Temperature: -2.0°C (28°F)
Dewpoint: -4.0°C (25°F) [RH = 86%]
Pressure (altimeter): 29.70 inches Hg (1006.0 mb)
Winds: from the E (80 degrees) at 3 MPH (3 knots; 1.5 m/s)
Visibility: 6 or more miles (10+ km)
Ceiling: 3700 feet AGL
Clouds: broken clouds at 3700 feet AGL
Weather: no significant weather observed at this time

METAR text: ENRY 230650Z VRB01KT 9999 BKN033 M02/M03 Q1006
Conditions at: ENRY (RYGGE (NOR-AFB) , NO) observed 0650 UTC 23 January 2019
Temperature: -2.0°C (28°F)
Dewpoint: -3.0°C (27°F) [RH = 93%]
Pressure (altimeter): 29.70 inches Hg (1006.0 mb)
Winds: variable direction winds at 1 MPH (1 knots; 0.5 m/s)
Visibility: 6 or more miles (10+ km)
Ceiling: 3300 feet AGL
Clouds: broken clouds at 3300 feet AGL
Weather: no significant weather observed at this time

METAR text: ENRY 230550Z VRB01KT 9999 BKN033 M02/M04 Q1005
Conditions at: ENRY (RYGGE (NOR-AFB) , NO) observed 0550 UTC 23 January 2019
Temperature: -2.0°C (28°F)
Dewpoint: -4.0°C (25°F) [RH = 86%]
Pressure (altimeter): 29.68 inches Hg (1005.0 mb)
Winds: variable direction winds at 1 MPH (1 knots; 0.5 m/s)
Visibility: 6 or more miles (10+ km)
Ceiling: 3300 feet AGL
Clouds: broken clouds at 3300 feet AGL
Weather: no significant weather observed at this time

METAR text: ENRY 230520Z AUTO 06004KT 9999NDV FEW032/// OVC044/// M02/M03 Q1005
Conditions at: ENRY (RYGGE (NOR-AFB) , NO) observed 0520 UTC 23 January 2019
Temperature: -2.0°C (28°F)
Dewpoint: -3.0°C (27°F) [RH = 93%]
Pressure (altimeter): 29.68 inches Hg (1005.0 mb)
Winds: from the ENE (60 degrees) at 5 MPH (4 knots; 2.1 m/s)
Visibility: missing
Ceiling: 4400 feet AGL
Clouds: few clouds at 3200 feet AGL
overcast cloud deck at 4400 feet AGL
Weather: no significant weather observed at this time

METAR text: ENRY 230450Z AUTO 35003KT 9999NDV OVC046/// M02/M03 Q1005
Conditions at: ENRY (RYGGE (NOR-AFB) , NO) observed 0450 UTC 23 January 2019
Temperature: -2.0°C (28°F)
Dewpoint: -3.0°C (27°F) [RH = 93%]
Pressure (altimeter): 29.68 inches Hg (1005.0 mb)
Winds: from the N (350 degrees) at 3 MPH (3 knots; 1.5 m/s)
Visibility: missing
Ceiling: 4600 feet AGL
Clouds: overcast cloud deck at 4600 feet AGL
Weather: no significant weather observed at this time

METAR text: ENRY 230420Z AUTO VRB02KT 9999NDV OVC049/// M02/M03 Q1005
Conditions at: ENRY (RYGGE (NOR-AFB) , NO) observed 0420 UTC 23 January 2019
Temperature: -2.0°C (28°F)
Dewpoint: -3.0°C (27°F) [RH = 93%]
Pressure (altimeter): 29.68 inches Hg (1005.0 mb)
Winds: variable direction winds at 2 MPH (2 knots; 1.0 m/s)
Visibility: missing
Ceiling: 4900 feet AGL
Clouds: overcast cloud deck at 4900 feet AGL
Weather: no significant weather observed at this time

METAR text: ENRY 230350Z AUTO 07004KT 9999NDV OVC051/// M02/M03 Q1005
Conditions at: ENRY (RYGGE (NOR-AFB) , NO) observed 0350 UTC 23 January 2019
Temperature: -2.0°C (28°F)
Dewpoint: -3.0°C (27°F) [RH = 93%]
Pressure (altimeter): 29.68 inches Hg (1005.0 mb)
Winds: from the ENE (70 degrees) at 5 MPH (4 knots; 2.1 m/s)
Visibility: missing
Ceiling: 5100 feet AGL
Clouds: overcast cloud deck at 5100 feet AGL
Weather: no significant weather observed at this time

METAR text: ENRY 230320Z AUTO 06003KT 010V080 9999NDV OVC049/// M01/M03 Q1005
Conditions at: ENRY (RYGGE (NOR-AFB) , NO) observed 0320 UTC 23 January 2019
Temperature: -1.0°C (30°F)
Dewpoint: -3.0°C (27°F) [RH = 86%]
Pressure (altimeter): 29.68 inches Hg (1005.0 mb)
Winds: from the ENE (60 degrees) at 3 MPH (3 knots; 1.5 m/s)
Visibility: missing
Ceiling: 4900 feet AGL
Clouds: overcast cloud deck at 4900 feet AGL
Weather: no significant weather observed at this time

METAR text: ENRY 230250Z AUTO 07003KT 9999NDV SCT041/// OVC049/// M02/M03 Q1005
Conditions at: ENRY (RYGGE (NOR-AFB) , NO) observed 0250 UTC 23 January 2019
Temperature: -2.0°C (28°F)
Dewpoint: -3.0°C (27°F) [RH = 93%]
Pressure (altimeter): 29.68 inches Hg (1005.0 mb)
Winds: from the ENE (70 degrees) at 3 MPH (3 knots; 1.5 m/s)
Visibility: missing
Ceiling: 4900 feet AGL
Clouds: scattered clouds at 4100 feet AGL
overcast cloud deck at 4900 feet AGL
Weather: no significant weather observed at this time

METAR text: ENRY 230220Z AUTO 08004KT 9999NDV OVC045/// M02/M03 Q1005
Conditions at: ENRY (RYGGE (NOR-AFB) , NO) observed 0220 UTC 23 January 2019
Temperature: -2.0°C (28°F)
Dewpoint: -3.0°C (27°F) [RH = 93%]
Pressure (altimeter): 29.68 inches Hg (1005.0 mb)
Winds: from the E (80 degrees) at 5 MPH (4 knots; 2.1 m/s)
Visibility: missing
Ceiling: 4500 feet AGL
Clouds: overcast cloud deck at 4500 feet AGL
Weather: no significant weather observed at this time

METAR text: ENRY 230150Z AUTO 08003KT 050V110 9999NDV OVC039/// M01/M03 Q1005
Conditions at: ENRY (RYGGE (NOR-AFB) , NO) observed 0150 UTC 23 January 2019
Temperature: -1.0°C (30°F)
Dewpoint: -3.0°C (27°F) [RH = 86%]
Pressure (altimeter): 29.68 inches Hg (1005.0 mb)
Winds: from the E (80 degrees) at 3 MPH (3 knots; 1.5 m/s)
Visibility: missing
Ceiling: 3900 feet AGL
Clouds: overcast cloud deck at 3900 feet AGL
Weather: no significant weather observed at this time

METAR text: ENRY 230120Z AUTO 11006KT 9999NDV BKN036/// OVC051/// M01/M03 Q1005
Conditions at: ENRY (RYGGE (NOR-AFB) , NO) observed 0120 UTC 23 January 2019
Temperature: -1.0°C (30°F)
Dewpoint: -3.0°C (27°F) [RH = 86%]
Pressure (altimeter): 29.68 inches Hg (1005.0 mb)
Winds: from the ESE (110 degrees) at 7 MPH (6 knots; 3.1 m/s)
Visibility: missing
Ceiling: 3600 feet AGL
Clouds: broken clouds at 3600 feet AGL
overcast cloud deck at 5100 feet AGL
Weather: no significant weather observed at this time

METAR text: ENRY 230050Z AUTO 11006KT 9999NDV BKN034/// OVC045/// M01/M03 Q1005
Conditions at: ENRY (RYGGE (NOR-AFB) , NO) observed 0050 UTC 23 January 2019
Temperature: -1.0°C (30°F)
Dewpoint: -3.0°C (27°F) [RH = 86%]
Pressure (altimeter): 29.68 inches Hg (1005.0 mb)
Winds: from the ESE (110 degrees) at 7 MPH (6 knots; 3.1 m/s)
Visibility: missing
Ceiling: 3400 feet AGL
Clouds: broken clouds at 3400 feet AGL
overcast cloud deck at 4500 feet AGL
Weather: no significant weather observed at this time

METAR text: ENRY 230020Z AUTO 10005KT 9999NDV FEW013/// SCT029/// OVC045/// M01/M03 Q1005
Conditions at: ENRY (RYGGE (NOR-AFB) , NO) observed 0020 UTC 23 January 2019
Temperature: -1.0°C (30°F)
Dewpoint: -3.0°C (27°F) [RH = 86%]
Pressure (altimeter): 29.68 inches Hg (1005.0 mb)
Winds: from the E (100 degrees) at 6 MPH (5 knots; 2.6 m/s)
Visibility: missing
Ceiling: 4500 feet AGL
Clouds: few clouds at 1300 feet AGL
scattered clouds at 2900 feet AGL
overcast cloud deck at 4500 feet AGL
Weather: no significant weather observed at this time

METAR text: ENRY 222350Z AUTO 09006KT 9999NDV BKN013/// BKN039/// OVC057/// M01/M03 Q1005
Conditions at: ENRY (RYGGE (NOR-AFB) , NO) observed 2350 UTC 22 January 2019
Temperature: -1.0°C (30°F)
Dewpoint: -3.0°C (27°F) [RH = 86%]
Pressure (altimeter): 29.68 inches Hg (1005.0 mb)
Winds: from the E (90 degrees) at 7 MPH (6 knots; 3.1 m/s)
Visibility: missing
Ceiling: 1300 feet AGL
Clouds: broken clouds at 1300 feet AGL
broken clouds at 3900 feet AGL
overcast cloud deck at 5700 feet AGL
Weather: no significant weather observed at this time

METAR text: ENRY 222320Z AUTO 10006KT 9999NDV FEW015/// BKN033/// OVC055/// M01/M03 Q1005
Conditions at: ENRY (RYGGE (NOR-AFB) , NO) observed 2320 UTC 22 January 2019
Temperature: -1.0°C (30°F)
Dewpoint: -3.0°C (27°F) [RH = 86%]
Pressure (altimeter): 29.68 inches Hg (1005.0 mb)
Winds: from the E (100 degrees) at 7 MPH (6 knots; 3.1 m/s)
Visibility: missing
Ceiling: 3300 feet AGL
Clouds: few clouds at 1500 feet AGL
broken clouds at 3300 feet AGL
overcast cloud deck at 5500 feet AGL
Weather: no significant weather observed at this time

METAR text: ENRY 222250Z 09005KT 9999 FEW015 OVC037 M01/M03 Q1006
Conditions at: ENRY (RYGGE (NOR-AFB) , NO) observed 2250 UTC 22 January 2019
Temperature: -1.0°C (30°F)
Dewpoint: -3.0°C (27°F) [RH = 86%]
Pressure (altimeter): 29.70 inches Hg (1006.0 mb)
Winds: from the E (90 degrees) at 6 MPH (5 knots; 2.6 m/s)
Visibility: 6 or more miles (10+ km)
Ceiling: 3700 feet AGL
Clouds: few clouds at 1500 feet AGL
overcast cloud deck at 3700 feet AGL
Weather: no significant weather observed at this time

METAR text: ENRY 222220Z 09006KT 9999 FEW013 OVC038 M02/M03 Q1006
Conditions at: ENRY (RYGGE (NOR-AFB) , NO) observed 2220 UTC 22 January 2019
Temperature: -2.0°C (28°F)
Dewpoint: -3.0°C (27°F) [RH = 93%]
Pressure (altimeter): 29.70 inches Hg (1006.0 mb)
Winds: from the E (90 degrees) at 7 MPH (6 knots; 3.1 m/s)
Visibility: 6 or more miles (10+ km)
Ceiling: 3800 feet AGL
Clouds: few clouds at 1300 feet AGL
overcast cloud deck at 3800 feet AGL
Weather: no significant weather observed at this time

METAR text: ENRY 222150Z 08004KT 9999 FEW015 OVC043 M02/M03 Q1006
Conditions at: ENRY (RYGGE (NOR-AFB) , NO) observed 2150 UTC 22 January 2019
Temperature: -2.0°C (28°F)
Dewpoint: -3.0°C (27°F) [RH = 93%]
Pressure (altimeter): 29.70 inches Hg (1006.0 mb)
Winds: from the E (80 degrees) at 5 MPH (4 knots; 2.1 m/s)
Visibility: 6 or more miles (10+ km)
Ceiling: 4300 feet AGL
Clouds: few clouds at 1500 feet AGL
overcast cloud deck at 4300 feet AGL
Weather: no significant weather observed at this time

METAR text: ENRY 222120Z 05003KT 9000 FEW016 OVC045 M03/M03 Q1006
Conditions at: ENRY (RYGGE (NOR-AFB) , NO) observed 2120 UTC 22 January 2019
Temperature: -3.0°C (27°F)
Dewpoint: -3.0°C (27°F) [RH = 100%]
Pressure (altimeter): 29.70 inches Hg (1006.0 mb)
Winds: from the NE (50 degrees) at 3 MPH (3 knots; 1.5 m/s)
Visibility: 6 miles ( 9 km)
Ceiling: 4500 feet AGL
Clouds: few clouds at 1600 feet AGL
overcast cloud deck at 4500 feet AGL
Weather: no significant weather observed at this time

METAR text: ENRY 222050Z 05003KT 9000 FEW020 BKN046 M03/M04 Q1006
Conditions at: ENRY (RYGGE (NOR-AFB) , NO) observed 2050 UTC 22 January 2019
Temperature: -3.0°C (27°F)
Dewpoint: -4.0°C (25°F) [RH = 93%]
Pressure (altimeter): 29.70 inches Hg (1006.0 mb)
Winds: from the NE (50 degrees) at 3 MPH (3 knots; 1.5 m/s)
Visibility: 6 miles ( 9 km)
Ceiling: 4600 feet AGL
Clouds: few clouds at 2000 feet AGL
broken clouds at 4600 feet AGL
Weather: no significant weather observed at this time

METAR text: ENRY 222020Z 04003KT 9999 SCT009 BKN046 M03/M04 Q1006
Conditions at: ENRY (RYGGE (NOR-AFB) , NO) observed 2020 UTC 22 January 2019
Temperature: -3.0°C (27°F)
Dewpoint: -4.0°C (25°F) [RH = 93%]
Pressure (altimeter): 29.70 inches Hg (1006.0 mb)
Winds: from the NE (40 degrees) at 3 MPH (3 knots; 1.5 m/s)
Visibility: 6 or more miles (10+ km)
Ceiling: 4600 feet AGL
Clouds: scattered clouds at 900 feet AGL
broken clouds at 4600 feet AGL
Weather: no significant weather observed at this time

METAR text: ENRY 221950Z 04003KT 9999 BKN009 M03/M04 Q1006
Conditions at: ENRY (RYGGE (NOR-AFB) , NO) observed 1950 UTC 22 January 2019
Temperature: -3.0°C (27°F)
Dewpoint: -4.0°C (25°F) [RH = 93%]
Pressure (altimeter): 29.70 inches Hg (1006.0 mb)
Winds: from the NE (40 degrees) at 3 MPH (3 knots; 1.5 m/s)
Visibility: 6 or more miles (10+ km)
Ceiling: 900 feet AGL
Clouds: broken clouds at 900 feet AGL
Weather: no significant weather observed at this time

METAR text: ENRY 221920Z 05003KT 010V080 9999 BKN009 M03/M04 Q1006
Conditions at: ENRY (RYGGE (NOR-AFB) , NO) observed 1920 UTC 22 January 2019
Temperature: -3.0°C (27°F)
Dewpoint: -4.0°C (25°F) [RH = 93%]
Pressure (altimeter): 29.70 inches Hg (1006.0 mb)
Winds: from the NE (50 degrees) at 3 MPH (3 knots; 1.5 m/s)
Visibility: 6 or more miles (10+ km)
Ceiling: 900 feet AGL
Clouds: broken clouds at 900 feet AGL
Weather: no significant weather observed at this time

METAR text: ENRY 221850Z 01003KT 320V050 9999 BKN009 M03/M04 Q1006
Conditions at: ENRY (RYGGE (NOR-AFB) , NO) observed 1850 UTC 22 January 2019
Temperature: -3.0°C (27°F)
Dewpoint: -4.0°C (25°F) [RH = 93%]
Pressure (altimeter): 29.70 inches Hg (1006.0 mb)
Winds: from the N (10 degrees) at 3 MPH (3 knots; 1.5 m/s)
Visibility: 6 or more miles (10+ km)
Ceiling: 900 feet AGL
Clouds: broken clouds at 900 feet AGL
Weather: no significant weather observed at this time

METAR text: ENRY 221820Z 02004KT 9999 BKN008 M03/M04 Q1006
Conditions at: ENRY (RYGGE (NOR-AFB) , NO) observed 1820 UTC 22 January 2019
Temperature: -3.0°C (27°F)
Dewpoint: -4.0°C (25°F) [RH = 93%]
Pressure (altimeter): 29.70 inches Hg (1006.0 mb)
Winds: from the NNE (20 degrees) at 5 MPH (4 knots; 2.1 m/s)
Visibility: 6 or more miles (10+ km)
Ceiling: 800 feet AGL
Clouds: broken clouds at 800 feet AGL
Weather: no significant weather observed at this time

METAR text: ENRY 221750Z 01003KT 340V050 9999 BKN008 M03/M04 Q1007
Conditions at: ENRY (RYGGE (NOR-AFB) , NO) observed 1750 UTC 22 January 2019
Temperature: -3.0°C (27°F)
Dewpoint: -4.0°C (25°F) [RH = 93%]
Pressure (altimeter): 29.73 inches Hg (1007.0 mb)
Winds: from the N (10 degrees) at 3 MPH (3 knots; 1.5 m/s)
Visibility: 6 or more miles (10+ km)
Ceiling: 800 feet AGL
Clouds: broken clouds at 800 feet AGL
Weather: no significant weather observed at this time

METAR text: ENRY 221720Z 01004KT 9999 BKN009 M03/M05 Q1007
Conditions at: ENRY (RYGGE (NOR-AFB) , NO) observed 1720 UTC 22 January 2019
Temperature: -3.0°C (27°F)
Dewpoint: -5.0°C (23°F) [RH = 86%]
Pressure (altimeter): 29.73 inches Hg (1007.0 mb)
Winds: from the N (10 degrees) at 5 MPH (4 knots; 2.1 m/s)
Visibility: 6 or more miles (10+ km)
Ceiling: 900 feet AGL
Clouds: broken clouds at 900 feet AGL
Weather: no significant weather observed at this time

METAR text: ENRY 221650Z 02004KT 9999 BKN010 M03/M05 Q1007
Conditions at: ENRY (RYGGE (NOR-AFB) , NO) observed 1650 UTC 22 January 2019
Temperature: -3.0°C (27°F)
Dewpoint: -5.0°C (23°F) [RH = 86%]
Pressure (altimeter): 29.73 inches Hg (1007.0 mb)
Winds: from the NNE (20 degrees) at 5 MPH (4 knots; 2.1 m/s)
Visibility: 6 or more miles (10+ km)
Ceiling: 1000 feet AGL
Clouds: broken clouds at 1000 feet AGL
Weather: no significant weather observed at this time

METAR text: ENRY 221620Z 34004KT 9999 BKN013 M03/M05 Q1007
Conditions at: ENRY (RYGGE (NOR-AFB) , NO) observed 1620 UTC 22 January 2019
Temperature: -3.0°C (27°F)
Dewpoint: -5.0°C (23°F) [RH = 86%]
Pressure (altimeter): 29.73 inches Hg (1007.0 mb)
Winds: from the NNW (340 degrees) at 5 MPH (4 knots; 2.1 m/s)
Visibility: 6 or more miles (10+ km)
Ceiling: 1300 feet AGL
Clouds: broken clouds at 1300 feet AGL
Weather: no significant weather observed at this time

METAR text: ENRY 221550Z 01004KT 9999 SCT015 BKN040 M03/M05 Q1007
Conditions at: ENRY (RYGGE (NOR-AFB) , NO) observed 1550 UTC 22 January 2019
Temperature: -3.0°C (27°F)
Dewpoint: -5.0°C (23°F) [RH = 86%]
Pressure (altimeter): 29.73 inches Hg (1007.0 mb)
Winds: from the N (10 degrees) at 5 MPH (4 knots; 2.1 m/s)
Visibility: 6 or more miles (10+ km)
Ceiling: 4000 feet AGL
Clouds: scattered clouds at 1500 feet AGL
broken clouds at 4000 feet AGL
Weather: no significant weather observed at this time

METAR text: ENRY 221520Z 01005KT 9999 BKN020 M03/M05 Q1007
Conditions at: ENRY (RYGGE (NOR-AFB) , NO) observed 1520 UTC 22 January 2019
Temperature: -3.0°C (27°F)
Dewpoint: -5.0°C (23°F) [RH = 86%]
Pressure (altimeter): 29.73 inches Hg (1007.0 mb)
Winds: from the N (10 degrees) at 6 MPH (5 knots; 2.6 m/s)
Visibility: 6 or more miles (10+ km)
Ceiling: 2000 feet AGL
Clouds: broken clouds at 2000 feet AGL
Weather: no significant weather observed at this time

METAR text: ENRY 221450Z 01005KT 9999 BKN023 M03/M05 Q1007
Conditions at: ENRY (RYGGE (NOR-AFB) , NO) observed 1450 UTC 22 January 2019
Temperature: -3.0°C (27°F)
Dewpoint: -5.0°C (23°F) [RH = 86%]
Pressure (altimeter): 29.73 inches Hg (1007.0 mb)
Winds: from the N (10 degrees) at 6 MPH (5 knots; 2.6 m/s)
Visibility: 6 or more miles (10+ km)
Ceiling: 2300 feet AGL
Clouds: broken clouds at 2300 feet AGL
Weather: no significant weather observed at this time

METAR text: ENRY 221420Z 02005KT 9999 BKN027 M03/M05 Q1007 NOSIG
Conditions at: ENRY (RYGGE (NOR-AFB) , NO) observed 1420 UTC 22 January 2019
Temperature: -3.0°C (27°F)
Dewpoint: -5.0°C (23°F) [RH = 86%]
Pressure (altimeter): 29.73 inches Hg (1007.0 mb)
Winds: from the NNE (20 degrees) at 6 MPH (5 knots; 2.6 m/s)
Visibility: 6 or more miles (10+ km)
Ceiling: 2700 feet AGL
Clouds: broken clouds at 2700 feet AGL
Weather: no significant weather observed at this time

METAR text: ENRY 221350Z 02005KT 9999 BKN028 M03/M05 Q1008 NOSIG
Conditions at: ENRY (RYGGE (NOR-AFB) , NO) observed 1350 UTC 22 January 2019
Temperature: -3.0°C (27°F)
Dewpoint: -5.0°C (23°F) [RH = 86%]
Pressure (altimeter): 29.76 inches Hg (1008.0 mb)
Winds: from the NNE (20 degrees) at 6 MPH (5 knots; 2.6 m/s)
Visibility: 6 or more miles (10+ km)
Ceiling: 2800 feet AGL
Clouds: broken clouds at 2800 feet AGL
Weather: no significant weather observed at this time

METAR text: ENRY 221320Z 01004KT 9999 BKN026 M03/M05 Q1008 NOSIG
Conditions at: ENRY (RYGGE (NOR-AFB) , NO) observed 1320 UTC 22 January 2019
Temperature: -3.0°C (27°F)
Dewpoint: -5.0°C (23°F) [RH = 86%]
Pressure (altimeter): 29.76 inches Hg (1008.0 mb)
Winds: from the N (10 degrees) at 5 MPH (4 knots; 2.1 m/s)
Visibility: 6 or more miles (10+ km)
Ceiling: 2600 feet AGL
Clouds: broken clouds at 2600 feet AGL
Weather: no significant weather observed at this time

METAR text: ENRY 221250Z 36005KT 9999 BKN023 M03/M05 Q1008 NOSIG
Conditions at: ENRY (RYGGE (NOR-AFB) , NO) observed 1250 UTC 22 January 2019
Temperature: -3.0°C (27°F)
Dewpoint: -5.0°C (23°F) [RH = 86%]
Pressure (altimeter): 29.76 inches Hg (1008.0 mb)
Winds: from the N (360 degrees) at 6 MPH (5 knots; 2.6 m/s)
Visibility: 6 or more miles (10+ km)
Ceiling: 2300 feet AGL
Clouds: broken clouds at 2300 feet AGL
Weather: no significant weather observed at this time

METAR text: ENRY 221220Z 01005KT 9999 BKN020 M03/M06 Q1009 NOSIG
Conditions at: ENRY (RYGGE (NOR-AFB) , NO) observed 1220 UTC 22 January 2019
Temperature: -3.0°C (27°F)
Dewpoint: -6.0°C (21°F) [RH = 80%]
Pressure (altimeter): 29.79 inches Hg (1009.0 mb)
Winds: from the N (10 degrees) at 6 MPH (5 knots; 2.6 m/s)
Visibility: 6 or more miles (10+ km)
Ceiling: 2000 feet AGL
Clouds: broken clouds at 2000 feet AGL
Weather: no significant weather observed at this time

METAR text: ENRY 221150Z 36004KT 9999 BKN021 M03/M06 Q1009 NOSIG
Conditions at: ENRY (RYGGE (NOR-AFB) , NO) observed 1150 UTC 22 January 2019
Temperature: -3.0°C (27°F)
Dewpoint: -6.0°C (21°F) [RH = 80%]
Pressure (altimeter): 29.79 inches Hg (1009.0 mb)
Winds: from the N (360 degrees) at 5 MPH (4 knots; 2.1 m/s)
Visibility: 6 or more miles (10+ km)
Ceiling: 2100 feet AGL
Clouds: broken clouds at 2100 feet AGL
Weather: no significant weather observed at this time

METAR text: ENRY 221120Z 36005KT 9999 BKN020 M04/M06 Q1009 NOSIG
Conditions at: ENRY (RYGGE (NOR-AFB) , NO) observed 1120 UTC 22 January 2019
Temperature: -4.0°C (25°F)
Dewpoint: -6.0°C (21°F) [RH = 86%]
Pressure (altimeter): 29.79 inches Hg (1009.0 mb)
Winds: from the N (360 degrees) at 6 MPH (5 knots; 2.6 m/s)
Visibility: 6 or more miles (10+ km)
Ceiling: 2000 feet AGL
Clouds: broken clouds at 2000 feet AGL
Weather: no significant weather observed at this time

METAR text: ENRY 221050Z 01005KT 9999 BKN018 M04/M06 Q1009 NOSIG
Conditions at: ENRY (RYGGE (NOR-AFB) , NO) observed 1050 UTC 22 January 2019
Temperature: -4.0°C (25°F)
Dewpoint: -6.0°C (21°F) [RH = 86%]
Pressure (altimeter): 29.79 inches Hg (1009.0 mb)
Winds: from the N (10 degrees) at 6 MPH (5 knots; 2.6 m/s)
Visibility: 6 or more miles (10+ km)
Ceiling: 1800 feet AGL
Clouds: broken clouds at 1800 feet AGL
Weather: no significant weather observed at this time

METAR text: ENRY 221020Z 35006KT 9999 BKN017 M04/M06 Q1010 NOSIG
Conditions at: ENRY (RYGGE (NOR-AFB) , NO) observed 1020 UTC 22 January 2019
Temperature: -4.0°C (25°F)
Dewpoint: -6.0°C (21°F) [RH = 86%]
Pressure (altimeter): 29.82 inches Hg (1010.0 mb)
Winds: from the N (350 degrees) at 7 MPH (6 knots; 3.1 m/s)
Visibility: 6 or more miles (10+ km)
Ceiling: 1700 feet AGL
Clouds: broken clouds at 1700 feet AGL
Weather: no significant weather observed at this time

METAR text: ENRY 220950Z 35004KT 9999 BKN015 M04/M06 Q1010 TEMPO BKN014
Conditions at: ENRY (RYGGE (NOR-AFB) , NO) observed 0950 UTC 22 January 2019
Temperature: -4.0°C (25°F)
Dewpoint: -6.0°C (21°F) [RH = 86%]
Pressure (altimeter): 29.82 inches Hg (1010.0 mb)
Winds: from the N (350 degrees) at 5 MPH (4 knots; 2.1 m/s)
Visibility: 6 or more miles (10+ km)
Ceiling: 1500 feet AGL
Clouds: broken clouds at 1500 feet AGL
Weather: no significant weather observed at this time

METAR text: ENRY 220920Z 36005KT 9999 BKN014 M05/M06 Q1010 TEMPO BKN016
Conditions at: ENRY (RYGGE (NOR-AFB) , NO) observed 0920 UTC 22 January 2019
Temperature: -5.0°C (23°F)
Dewpoint: -6.0°C (21°F) [RH = 93%]
Pressure (altimeter): 29.82 inches Hg (1010.0 mb)
Winds: from the N (360 degrees) at 6 MPH (5 knots; 2.6 m/s)
Visibility: 6 or more miles (10+ km)
Ceiling: 1400 feet AGL
Clouds: broken clouds at 1400 feet AGL
Weather: no significant weather observed at this time

METAR text: ENRY 220850Z 01005KT 9999 FEW009 BKN013 M05/M06 Q1010 NOSIG
Conditions at: ENRY (RYGGE (NOR-AFB) , NO) observed 0850 UTC 22 January 2019
Temperature: -5.0°C (23°F)
Dewpoint: -6.0°C (21°F) [RH = 93%]
Pressure (altimeter): 29.82 inches Hg (1010.0 mb)
Winds: from the N (10 degrees) at 6 MPH (5 knots; 2.6 m/s)
Visibility: 6 or more miles (10+ km)
Ceiling: 1300 feet AGL
Clouds: few clouds at 900 feet AGL
broken clouds at 1300 feet AGL
Weather: no significant weather observed at this time

METAR text: ENRY 220820Z 35005KT 9999 BKN009 M05/M06 Q1010 TEMPO SCT008 BKN012
Conditions at: ENRY (RYGGE (NOR-AFB) , NO) observed 0820 UTC 22 January 2019
Temperature: -5.0°C (23°F)
Dewpoint: -6.0°C (21°F) [RH = 93%]
Pressure (altimeter): 29.82 inches Hg (1010.0 mb)
Winds: from the N (350 degrees) at 6 MPH (5 knots; 2.6 m/s)
Visibility: 6 or more miles (10+ km)
Ceiling: 900 feet AGL
Clouds: broken clouds at 900 feet AGL
Weather: no significant weather observed at this time

METAR text: ENRY 220750Z 35005KT 9999 OVC009 M05/M06 Q1010 TEMPO SCT008 BKN012
Conditions at: ENRY (RYGGE (NOR-AFB) , NO) observed 0750 UTC 22 January 2019
Temperature: -5.0°C (23°F)
Dewpoint: -6.0°C (21°F) [RH = 93%]
Pressure (altimeter): 29.82 inches Hg (1010.0 mb)
Winds: from the N (350 degrees) at 6 MPH (5 knots; 2.6 m/s)
Visibility: 6 or more miles (10+ km)
Ceiling: 900 feet AGL
Clouds: overcast cloud deck at 900 feet AGL
Weather: no significant weather observed at this time

Forecast for: ENRY (RYGGE (NOR-AFB) , NO)
Text: TAF ENRY 2318/2418 12005KT 9999 FEW010 BKN040
Forecast period: 1800 UTC 23 January 2019 to 1800 UTC 24 January 2019
Forecast type: FROM: standard forecast or significant change
Winds: from the ESE (120 degrees) at 6 MPH (5 knots; 2.6 m/s)
Visibility: 6 or more miles 10+ km)
Ceiling: 4000 feet AGL
Clouds: few clouds at 1000 feet AGL
broken clouds at 4000 feet AGL
Weather: no significant weather forecast for this period
Text: TEMPO 2400/2418 2000 -SN VV012
Forecast period: 0000 to 1800 UTC 24 January 2019
Forecast type: TEMPORARY: The following changes expected for less than half the time period
Visibility: 1.24 miles (2.00 km)
Ceiling: indefinite ceiling with vertical visibility of 1200 feet AGL
Clouds: obscured sky
Weather: -SN  (light snow)